Portada
METAR-TAF:

METAR-TAF

Aeroports :

Laurinburg-Maxton Airport

Maxton, Carolina del Nord, Estats Units d'Amèrica

latitud: 34-47-29N, longitud: 079-22-05W, altitud: 67 m

Observació

L'informe es va fer fa 6 minuts, a les 17:35 UTC
Vent 7 kt del Est/Nord-Est
Temperatura 25°C
Humitat 69%
Pressió 1022 hPa
Visibilitat: 16.1 km
Cel ennuvolat a una alçada de 2000 ft

METAR: KMEB 251735Z AUTO 07007KT 10SM BKN020 25/19 A3017 RMK AO2 T02500194

Hora: 13:41 (17:41 UTC)


TAF: manca

Observacions i pronòstics meteorològics de més de 4000 aeroports (METAR i TAF).

Les estacions disponibles són els punts grocs i vermells al mapa.

Posi el ratolí al punt desitjat per veure el nom de l'estació.

Feu clic per veure les observacions i els pronòstics meteorològics.

Per canviar el mapa: feu clic els botons verds amb una creu de color negre per apropar; al botó verd amb un guió per allunyar la imatge; o en les fletxes verdes per a mapes adjacents.


METAR-TAF: